sensor_id;sensor_type;location;lat;lon;timestamp;P1;durP1;ratioP1;P2;durP2;ratioP2
14858;SDS011;7521;51.700;6.874;2023-02-17T00:02:12;24.77;;;20.53;;
14858;SDS011;7521;51.700;6.874;2023-02-17T00:05:17;27.20;;;20.47;;
14858;SDS011;7521;51.700;6.874;2023-02-17T00:08:22;31.15;;;20.83;;
14858;SDS011;7521;51.700;6.874;2023-02-17T00:11:27;25.42;;;20.33;;
14858;SDS011;7521;51.700;6.874;2023-02-17T00:14:33;30.07;;;21.87;;
14858;SDS011;7521;51.700;6.874;2023-02-17T00:17:38;27.88;;;21.90;;
14858;SDS011;7521;51.700;6.874;2023-02-17T00:20:43;28.60;;;20.92;;
14858;SDS011;7521;51.700;6.874;2023-02-17T00:23:50;28.58;;;20.27;;
14858;SDS011;7521;51.700;6.874;2023-02-17T00:26:55;29.43;;;21.70;;
14858;SDS011;7521;51.700;6.874;2023-02-17T00:30:01;27.23;;;21.17;;
14858;SDS011;7521;51.700;6.874;2023-02-17T00:33:06;29.17;;;21.07;;
14858;SDS011;7521;51.700;6.874;2023-02-17T00:36:15;27.03;;;20.80;;
14858;SDS011;7521;51.700;6.874;2023-02-17T00:39:21;27.50;;;19.87;;
14858;SDS011;7521;51.700;6.874;2023-02-17T00:42:26;24.90;;;20.10;;
14858;SDS011;7521;51.700;6.874;2023-02-17T00:45:32;25.90;;;20.47;;
14858;SDS011;7521;51.700;6.874;2023-02-17T00:48:37;28.08;;;20.02;;
14858;SDS011;7521;51.700;6.874;2023-02-17T00:51:42;24.67;;;19.25;;
14858;SDS011;7521;51.700;6.874;2023-02-17T00:54:47;25.20;;;19.67;;
14858;SDS011;7521;51.700;6.874;2023-02-17T00:57:53;24.57;;;19.93;;
14858;SDS011;7521;51.700;6.874;2023-02-17T01:00:58;25.53;;;19.97;;
14858;SDS011;7521;51.700;6.874;2023-02-17T01:04:06;31.47;;;20.70;;
14858;SDS011;7521;51.700;6.874;2023-02-17T01:07:11;24.13;;;19.10;;
14858;SDS011;7521;51.700;6.874;2023-02-17T01:10:16;27.00;;;20.73;;
14858;SDS011;7521;51.700;6.874;2023-02-17T01:13:21;25.73;;;19.37;;
14858;SDS011;7521;51.700;6.874;2023-02-17T01:16:27;27.20;;;21.65;;
14858;SDS011;7521;51.700;6.874;2023-02-17T01:19:33;26.60;;;20.63;;
14858;SDS011;7521;51.700;6.874;2023-02-17T01:22:38;27.05;;;20.50;;
14858;SDS011;7521;51.700;6.874;2023-02-17T01:25:44;25.03;;;19.87;;
14858;SDS011;7521;51.700;6.874;2023-02-17T01:28:50;27.80;;;22.40;;
14858;SDS011;7521;51.700;6.874;2023-02-17T01:31:56;27.27;;;21.37;;
14858;SDS011;7521;51.700;6.874;2023-02-17T01:35:01;28.57;;;20.30;;
14858;SDS011;7521;51.700;6.874;2023-02-17T01:38:06;29.60;;;21.53;;
14858;SDS011;7521;51.700;6.874;2023-02-17T01:41:11;25.65;;;19.92;;
14858;SDS011;7521;51.700;6.874;2023-02-17T01:44:21;27.17;;;20.07;;
14858;SDS011;7521;51.700;6.874;2023-02-17T01:47:27;26.27;;;20.93;;
14858;SDS011;7521;51.700;6.874;2023-02-17T01:50:37;28.20;;;21.13;;
14858;SDS011;7521;51.700;6.874;2023-02-17T01:53:46;27.07;;;21.53;;
14858;SDS011;7521;51.700;6.874;2023-02-17T01:56:54;25.63;;;20.47;;
14858;SDS011;7521;51.700;6.874;2023-02-17T02:00:00;28.10;;;21.03;;
14858;SDS011;7521;51.700;6.874;2023-02-17T02:03:07;25.80;;;20.00;;
14858;SDS011;7521;51.700;6.874;2023-02-17T02:06:15;27.17;;;21.23;;
14858;SDS011;7521;51.700;6.874;2023-02-17T02:09:21;29.20;;;20.60;;
14858;SDS011;7521;51.700;6.874;2023-02-17T02:12:33;25.97;;;19.27;;
14858;SDS011;7521;51.700;6.874;2023-02-17T02:15:43;25.83;;;18.80;;
14858;SDS011;7521;51.700;6.874;2023-02-17T02:18:59;24.17;;;19.20;;
14858;SDS011;7521;51.700;6.874;2023-02-17T02:34:54;20.53;;;17.30;;
14858;SDS011;7521;51.700;6.874;2023-02-17T02:41:28;20.40;;;17.00;;
14858;SDS011;7521;51.700;6.874;2023-02-17T02:44:34;19.03;;;16.10;;
14858;SDS011;7521;51.700;6.874;2023-02-17T02:47:47;19.40;;;15.70;;
14858;SDS011;7521;51.700;6.874;2023-02-17T02:54:03;16.33;;;14.57;;
14858;SDS011;7521;51.700;6.874;2023-02-17T03:00:29;17.98;;;15.23;;
14858;SDS011;7521;51.700;6.874;2023-02-17T03:06:55;15.47;;;13.23;;
14858;SDS011;7521;51.700;6.874;2023-02-17T03:10:02;16.63;;;14.40;;
14858;SDS011;7521;51.700;6.874;2023-02-17T03:13:08;18.93;;;15.37;;
14858;SDS011;7521;51.700;6.874;2023-02-17T03:16:13;17.58;;;14.55;;
14858;SDS011;7521;51.700;6.874;2023-02-17T03:19:19;16.77;;;14.43;;
14858;SDS011;7521;51.700;6.874;2023-02-17T03:22:27;18.97;;;14.63;;
14858;SDS011;7521;51.700;6.874;2023-02-17T03:25:34;17.40;;;14.60;;
14858;SDS011;7521;51.700;6.874;2023-02-17T03:28:39;14.87;;;13.17;;
14858;SDS011;7521;51.700;6.874;2023-02-17T03:31:45;15.68;;;13.73;;
14858;SDS011;7521;51.700;6.874;2023-02-17T03:34:50;16.77;;;13.77;;
14858;SDS011;7521;51.700;6.874;2023-02-17T03:37:55;15.60;;;12.32;;
14858;SDS011;7521;51.700;6.874;2023-02-17T03:41:00;15.73;;;13.02;;
14858;SDS011;7521;51.700;6.874;2023-02-17T03:44:05;14.98;;;12.63;;
14858;SDS011;7521;51.700;6.874;2023-02-17T03:47:10;13.18;;;11.88;;
14858;SDS011;7521;51.700;6.874;2023-02-17T03:50:16;14.77;;;12.10;;
14858;SDS011;7521;51.700;6.874;2023-02-17T03:53:21;14.47;;;12.00;;
14858;SDS011;7521;51.700;6.874;2023-02-17T03:56:26;13.60;;;11.07;;
14858;SDS011;7521;51.700;6.874;2023-02-17T03:59:31;14.27;;;11.53;;
14858;SDS011;7521;51.700;6.874;2023-02-17T04:02:36;12.82;;;10.77;;
14858;SDS011;7521;51.700;6.874;2023-02-17T04:05:43;14.32;;;11.48;;
14858;SDS011;7521;51.700;6.874;2023-02-17T04:08:48;14.33;;;10.73;;
14858;SDS011;7521;51.700;6.874;2023-02-17T04:11:53;12.63;;;10.38;;
14858;SDS011;7521;51.700;6.874;2023-02-17T04:14:58;14.32;;;10.60;;
14858;SDS011;7521;51.700;6.874;2023-02-17T04:18:03;10.30;;;9.30;;
14858;SDS011;7521;51.700;6.874;2023-02-17T04:21:09;13.50;;;10.23;;
14858;SDS011;7521;51.700;6.874;2023-02-17T04:24:14;11.10;;;9.87;;
14858;SDS011;7521;51.700;6.874;2023-02-17T04:27:19;13.30;;;9.50;;
14858;SDS011;7521;51.700;6.874;2023-02-17T04:30:24;10.18;;;9.15;;
14858;SDS011;7521;51.700;6.874;2023-02-17T04:33:29;11.47;;;9.27;;
14858;SDS011;7521;51.700;6.874;2023-02-17T04:36:34;10.02;;;8.65;;
14858;SDS011;7521;51.700;6.874;2023-02-17T04:39:40;9.82;;;7.65;;
14858;SDS011;7521;51.700;6.874;2023-02-17T04:42:45;10.27;;;8.17;;
14858;SDS011;7521;51.700;6.874;2023-02-17T04:45:50;9.40;;;8.17;;
14858;SDS011;7521;51.700;6.874;2023-02-17T04:48:56;8.60;;;7.70;;
14858;SDS011;7521;51.700;6.874;2023-02-17T04:52:01;9.90;;;8.87;;
14858;SDS011;7521;51.700;6.874;2023-02-17T04:55:06;10.53;;;9.40;;
14858;SDS011;7521;51.700;6.874;2023-02-17T04:58:12;11.10;;;9.90;;
14858;SDS011;7521;51.700;6.874;2023-02-17T05:01:17;11.90;;;9.83;;
14858;SDS011;7521;51.700;6.874;2023-02-17T05:04:22;10.52;;;8.43;;
14858;SDS011;7521;51.700;6.874;2023-02-17T05:07:27;10.10;;;8.45;;
14858;SDS011;7521;51.700;6.874;2023-02-17T05:10:32;9.00;;;8.10;;
14858;SDS011;7521;51.700;6.874;2023-02-17T05:13:37;9.80;;;7.57;;
14858;SDS011;7521;51.700;6.874;2023-02-17T05:16:43;10.68;;;7.85;;
14858;SDS011;7521;51.700;6.874;2023-02-17T05:19:48;8.47;;;7.10;;
14858;SDS011;7521;51.700;6.874;2023-02-17T05:22:53;8.80;;;7.40;;
14858;SDS011;7521;51.700;6.874;2023-02-17T05:25:58;8.85;;;7.95;;
14858;SDS011;7521;51.700;6.874;2023-02-17T05:29:03;11.00;;;8.38;;
14858;SDS011;7521;51.700;6.874;2023-02-17T05:32:09;9.43;;;8.48;;
14858;SDS011;7521;51.700;6.874;2023-02-17T05:35:14;9.95;;;8.68;;
14858;SDS011;7521;51.700;6.874;2023-02-17T05:38:19;12.33;;;8.63;;
14858;SDS011;7521;51.700;6.874;2023-02-17T05:41:24;10.20;;;9.20;;
14858;SDS011;7521;51.700;6.874;2023-02-17T05:44:30;12.23;;;9.40;;
14858;SDS011;7521;51.700;6.874;2023-02-17T05:47:35;10.60;;;9.45;;
14858;SDS011;7521;51.700;6.874;2023-02-17T05:50:41;11.47;;;10.00;;
14858;SDS011;7521;51.700;6.874;2023-02-17T05:53:46;10.40;;;9.33;;
14858;SDS011;7521;51.700;6.874;2023-02-17T05:56:51;12.20;;;9.90;;
14858;SDS011;7521;51.700;6.874;2023-02-17T05:59:56;9.80;;;8.80;;
14858;SDS011;7521;51.700;6.874;2023-02-17T06:03:01;9.63;;;8.67;;
14858;SDS011;7521;51.700;6.874;2023-02-17T06:06:07;10.50;;;7.88;;
14858;SDS011;7521;51.700;6.874;2023-02-17T06:09:12;12.63;;;8.10;;
14858;SDS011;7521;51.700;6.874;2023-02-17T06:12:17;10.60;;;7.63;;
14858;SDS011;7521;51.700;6.874;2023-02-17T06:15:22;9.70;;;8.23;;
14858;SDS011;7521;51.700;6.874;2023-02-17T06:18:27;10.32;;;8.43;;
14858;SDS011;7521;51.700;6.874;2023-02-17T06:21:33;11.13;;;9.00;;
14858;SDS011;7521;51.700;6.874;2023-02-17T06:24:38;10.77;;;9.10;;
14858;SDS011;7521;51.700;6.874;2023-02-17T06:27:43;11.05;;;9.75;;
14858;SDS011;7521;51.700;6.874;2023-02-17T06:30:48;14.07;;;10.65;;
14858;SDS011;7521;51.700;6.874;2023-02-17T06:33:53;11.27;;;10.07;;
14858;SDS011;7521;51.700;6.874;2023-02-17T06:36:59;13.52;;;10.95;;
14858;SDS011;7521;51.700;6.874;2023-02-17T06:40:04;14.95;;;11.23;;
14858;SDS011;7521;51.700;6.874;2023-02-17T06:43:09;13.53;;;11.27;;
14858;SDS011;7521;51.700;6.874;2023-02-17T06:46:14;18.10;;;11.40;;
14858;SDS011;7521;51.700;6.874;2023-02-17T06:49:19;12.85;;;10.93;;
14858;SDS011;7521;51.700;6.874;2023-02-17T06:52:25;13.60;;;10.85;;
14858;SDS011;7521;51.700;6.874;2023-02-17T06:55:30;12.53;;;10.20;;
14858;SDS011;7521;51.700;6.874;2023-02-17T06:58:36;13.23;;;9.93;;
14858;SDS011;7521;51.700;6.874;2023-02-17T07:01:41;13.23;;;10.27;;
14858;SDS011;7521;51.700;6.874;2023-02-17T07:04:46;13.45;;;9.90;;
14858;SDS011;7521;51.700;6.874;2023-02-17T07:07:51;12.97;;;10.47;;
14858;SDS011;7521;51.700;6.874;2023-02-17T07:10:57;13.77;;;10.57;;
14858;SDS011;7521;51.700;6.874;2023-02-17T07:14:05;15.13;;;9.90;;
14858;SDS011;7521;51.700;6.874;2023-02-17T07:17:13;12.50;;;10.27;;
14858;SDS011;7521;51.700;6.874;2023-02-17T07:20:19;12.13;;;10.00;;
14858;SDS011;7521;51.700;6.874;2023-02-17T07:23:27;12.52;;;10.10;;
14858;SDS011;7521;51.700;6.874;2023-02-17T07:26:41;12.83;;;9.57;;
14858;SDS011;7521;51.700;6.874;2023-02-17T07:29:47;13.13;;;9.97;;
14858;SDS011;7521;51.700;6.874;2023-02-17T07:32:52;11.88;;;9.45;;
14858;SDS011;7521;51.700;6.874;2023-02-17T07:35:57;15.88;;;10.82;;
14858;SDS011;7521;51.700;6.874;2023-02-17T07:39:02;14.32;;;10.13;;
14858;SDS011;7521;51.700;6.874;2023-02-17T07:42:07;14.90;;;10.40;;
14858;SDS011;7521;51.700;6.874;2023-02-17T07:45:13;12.87;;;10.97;;
14858;SDS011;7521;51.700;6.874;2023-02-17T07:48:18;20.38;;;11.95;;
14858;SDS011;7521;51.700;6.874;2023-02-17T07:51:24;15.73;;;11.63;;
14858;SDS011;7521;51.700;6.874;2023-02-17T07:54:29;16.00;;;11.70;;
14858;SDS011;7521;51.700;6.874;2023-02-17T07:57:34;15.60;;;12.00;;
14858;SDS011;7521;51.700;6.874;2023-02-17T08:00:39;15.27;;;11.55;;
14858;SDS011;7521;51.700;6.874;2023-02-17T08:03:44;19.48;;;11.02;;
14858;SDS011;7521;51.700;6.874;2023-02-17T08:06:50;15.33;;;11.77;;
14858;SDS011;7521;51.700;6.874;2023-02-17T08:09:55;17.47;;;11.83;;
14858;SDS011;7521;51.700;6.874;2023-02-17T08:13:19;14.87;;;11.30;;
14858;SDS011;7521;51.700;6.874;2023-02-17T08:16:24;13.65;;;11.57;;
14858;SDS011;7521;51.700;6.874;2023-02-17T08:19:32;13.70;;;10.67;;
14858;SDS011;7521;51.700;6.874;2023-02-17T08:22:37;13.80;;;11.48;;
14858;SDS011;7521;51.700;6.874;2023-02-17T08:25:42;16.10;;;10.93;;
14858;SDS011;7521;51.700;6.874;2023-02-17T08:28:47;13.35;;;11.05;;
14858;SDS011;7521;51.700;6.874;2023-02-17T08:31:53;14.93;;;11.47;;
14858;SDS011;7521;51.700;6.874;2023-02-17T08:34:58;17.07;;;11.97;;
14858;SDS011;7521;51.700;6.874;2023-02-17T08:38:03;12.70;;;11.17;;
14858;SDS011;7521;51.700;6.874;2023-02-17T08:41:15;12.90;;;10.25;;
14858;SDS011;7521;51.700;6.874;2023-02-17T08:44:21;12.53;;;10.07;;
14858;SDS011;7521;51.700;6.874;2023-02-17T08:47:27;14.83;;;10.67;;
14858;SDS011;7521;51.700;6.874;2023-02-17T08:50:33;14.40;;;11.30;;
14858;SDS011;7521;51.700;6.874;2023-02-17T08:53:39;12.30;;;10.47;;
14858;SDS011;7521;51.700;6.874;2023-02-17T08:56:44;12.60;;;10.23;;
14858;SDS011;7521;51.700;6.874;2023-02-17T08:59:49;14.20;;;9.93;;
14858;SDS011;7521;51.700;6.874;2023-02-17T09:02:54;11.93;;;9.40;;
14858;SDS011;7521;51.700;6.874;2023-02-17T09:06:00;12.20;;;9.50;;
14858;SDS011;7521;51.700;6.874;2023-02-17T09:09:06;12.50;;;9.68;;
14858;SDS011;7521;51.700;6.874;2023-02-17T09:12:11;13.63;;;9.17;;
14858;SDS011;7521;51.700;6.874;2023-02-17T09:15:16;11.70;;;8.67;;
14858;SDS011;7521;51.700;6.874;2023-02-17T09:18:22;12.43;;;8.87;;
14858;SDS011;7521;51.700;6.874;2023-02-17T09:21:27;11.73;;;8.50;;
14858;SDS011;7521;51.700;6.874;2023-02-17T09:24:32;9.80;;;8.57;;
14858;SDS011;7521;51.700;6.874;2023-02-17T09:27:38;9.33;;;7.90;;
14858;SDS011;7521;51.700;6.874;2023-02-17T09:30:44;11.87;;;7.53;;
14858;SDS011;7521;51.700;6.874;2023-02-17T09:33:49;9.68;;;7.35;;
14858;SDS011;7521;51.700;6.874;2023-02-17T09:36:55;10.93;;;7.87;;
14858;SDS011;7521;51.700;6.874;2023-02-17T09:40:00;9.03;;;7.40;;
14858;SDS011;7521;51.700;6.874;2023-02-17T09:43:07;9.55;;;7.15;;
14858;SDS011;7521;51.700;6.874;2023-02-17T09:46:23;7.60;;;6.63;;
14858;SDS011;7521;51.700;6.874;2023-02-17T09:49:33;7.87;;;7.07;;
14858;SDS011;7521;51.700;6.874;2023-02-17T09:52:43;7.60;;;6.67;;
14858;SDS011;7521;51.700;6.874;2023-02-17T09:55:51;9.37;;;7.10;;
14858;SDS011;7521;51.700;6.874;2023-02-17T09:59:01;9.20;;;6.87;;
14858;SDS011;7521;51.700;6.874;2023-02-17T10:02:10;8.37;;;6.73;;
14858;SDS011;7521;51.700;6.874;2023-02-17T10:05:18;9.80;;;7.53;;
14858;SDS011;7521;51.700;6.874;2023-02-17T10:08:30;8.97;;;7.57;;
14858;SDS011;7521;51.700;6.874;2023-02-17T10:11:53;8.23;;;7.33;;
14858;SDS011;7521;51.700;6.874;2023-02-17T10:15:12;10.07;;;7.80;;
14858;SDS011;7521;51.700;6.874;2023-02-17T10:21:39;10.53;;;6.97;;
14858;SDS011;7521;51.700;6.874;2023-02-17T10:24:46;11.53;;;7.87;;
14858;SDS011;7521;51.700;6.874;2023-02-17T10:27:55;9.38;;;6.50;;
14858;SDS011;7521;51.700;6.874;2023-02-17T10:31:09;9.20;;;8.03;;
14858;SDS011;7521;51.700;6.874;2023-02-17T10:34:37;8.30;;;7.27;;
14858;SDS011;7521;51.700;6.874;2023-02-17T10:37:45;8.47;;;7.60;;
14858;SDS011;7521;51.700;6.874;2023-02-17T10:40:51;8.63;;;7.37;;
14858;SDS011;7521;51.700;6.874;2023-02-17T10:43:59;8.17;;;7.23;;
14858;SDS011;7521;51.700;6.874;2023-02-17T10:47:04;7.43;;;6.63;;
14858;SDS011;7521;51.700;6.874;2023-02-17T10:50:17;8.17;;;6.93;;
14858;SDS011;7521;51.700;6.874;2023-02-17T10:53:24;8.67;;;6.90;;
14858;SDS011;7521;51.700;6.874;2023-02-17T10:56:37;8.40;;;6.67;;
14858;SDS011;7521;51.700;6.874;2023-02-17T10:59:44;8.30;;;6.73;;
14858;SDS011;7521;51.700;6.874;2023-02-17T11:02:49;9.83;;;6.20;;
14858;SDS011;7521;51.700;6.874;2023-02-17T11:05:59;9.37;;;6.23;;
14858;SDS011;7521;51.700;6.874;2023-02-17T11:09:14;8.30;;;6.03;;
14858;SDS011;7521;51.700;6.874;2023-02-17T11:12:22;8.17;;;5.83;;
14858;SDS011;7521;51.700;6.874;2023-02-17T11:15:33;5.83;;;5.07;;
14858;SDS011;7521;51.700;6.874;2023-02-17T11:18:39;6.87;;;4.73;;
14858;SDS011;7521;51.700;6.874;2023-02-17T11:21:49;6.17;;;5.10;;
14858;SDS011;7521;51.700;6.874;2023-02-17T11:24:57;6.53;;;5.07;;
14858;SDS011;7521;51.700;6.874;2023-02-17T11:28:04;6.23;;;5.50;;
14858;SDS011;7521;51.700;6.874;2023-02-17T11:31:20;8.33;;;5.30;;
14858;SDS011;7521;51.700;6.874;2023-02-17T11:34:27;7.33;;;5.07;;
14858;SDS011;7521;51.700;6.874;2023-02-17T11:37:36;5.33;;;4.80;;
14858;SDS011;7521;51.700;6.874;2023-02-17T11:40:50;6.40;;;5.10;;
14858;SDS011;7521;51.700;6.874;2023-02-17T11:43:56;7.03;;;4.17;;
14858;SDS011;7521;51.700;6.874;2023-02-17T11:47:07;6.57;;;4.50;;
14858;SDS011;7521;51.700;6.874;2023-02-17T11:53:48;5.57;;;4.40;;
14858;SDS011;7521;51.700;6.874;2023-02-17T11:57:03;4.90;;;4.20;;
14858;SDS011;7521;51.700;6.874;2023-02-17T12:00:26;4.73;;;4.27;;
14858;SDS011;7521;51.700;6.874;2023-02-17T12:13:18;5.90;;;4.10;;
14858;SDS011;7521;51.700;6.874;2023-02-17T12:16:36;5.70;;;4.80;;
14858;SDS011;7521;51.700;6.874;2023-02-17T12:32:42;5.17;;;4.37;;
14858;SDS011;7521;51.700;6.874;2023-02-17T12:36:03;7.03;;;4.27;;
14858;SDS011;7521;51.700;6.874;2023-02-17T12:39:16;4.73;;;4.07;;
14858;SDS011;7521;51.700;6.874;2023-02-17T12:42:23;4.47;;;3.70;;
14858;SDS011;7521;51.700;6.874;2023-02-17T12:45:40;3.83;;;3.43;;
14858;SDS011;7521;51.700;6.874;2023-02-17T12:49:00;6.77;;;3.83;;
14858;SDS011;7521;51.700;6.874;2023-02-17T12:52:12;5.07;;;4.57;;
14858;SDS011;7521;51.700;6.874;2023-02-17T12:55:25;4.37;;;3.97;;
14858;SDS011;7521;51.700;6.874;2023-02-17T12:58:33;7.40;;;3.70;;
14858;SDS011;7521;51.700;6.874;2023-02-17T13:01:39;6.77;;;5.27;;
14858;SDS011;7521;51.700;6.874;2023-02-17T13:04:52;3.90;;;3.50;;
14858;SDS011;7521;51.700;6.874;2023-02-17T13:07:58;4.07;;;3.67;;
14858;SDS011;7521;51.700;6.874;2023-02-17T13:11:25;4.77;;;3.70;;
14858;SDS011;7521;51.700;6.874;2023-02-17T13:17:54;11.07;;;6.93;;
14858;SDS011;7521;51.700;6.874;2023-02-17T13:24:49;5.80;;;4.77;;
14858;SDS011;7521;51.700;6.874;2023-02-17T13:27:55;7.57;;;5.87;;
14858;SDS011;7521;51.700;6.874;2023-02-17T13:31:42;5.97;;;5.17;;
14858;SDS011;7521;51.700;6.874;2023-02-17T13:37:41;9.80;;;8.20;;
14858;SDS011;7521;51.700;6.874;2023-02-17T13:40:46;7.10;;;6.40;;
14858;SDS011;7521;51.700;6.874;2023-02-17T13:43:51;9.45;;;8.40;;
14858;SDS011;7521;51.700;6.874;2023-02-17T13:46:58;15.20;;;11.30;;
14858;SDS011;7521;51.700;6.874;2023-02-17T13:50:04;9.63;;;7.40;;
14858;SDS011;7521;51.700;6.874;2023-02-17T13:56:28;34.93;;;22.60;;
14858;SDS011;7521;51.700;6.874;2023-02-17T13:59:33;21.20;;;16.43;;
14858;SDS011;7521;51.700;6.874;2023-02-17T14:02:45;32.37;;;21.63;;
14858;SDS011;7521;51.700;6.874;2023-02-17T14:05:52;14.00;;;12.57;;
14858;SDS011;7521;51.700;6.874;2023-02-17T14:08:58;26.87;;;17.83;;
14858;SDS011;7521;51.700;6.874;2023-02-17T14:12:05;25.90;;;19.97;;
14858;SDS011;7521;51.700;6.874;2023-02-17T14:15:14;22.30;;;19.43;;
14858;SDS011;7521;51.700;6.874;2023-02-17T14:18:27;22.37;;;19.93;;
14858;SDS011;7521;51.700;6.874;2023-02-17T14:21:32;18.93;;;16.97;;
14858;SDS011;7521;51.700;6.874;2023-02-17T14:24:38;19.53;;;17.43;;
14858;SDS011;7521;51.700;6.874;2023-02-17T14:27:44;18.00;;;16.02;;
14858;SDS011;7521;51.700;6.874;2023-02-17T14:30:50;19.53;;;16.53;;
14858;SDS011;7521;51.700;6.874;2023-02-17T14:33:57;22.13;;;19.07;;
14858;SDS011;7521;51.700;6.874;2023-02-17T14:37:07;24.47;;;20.43;;
14858;SDS011;7521;51.700;6.874;2023-02-17T14:40:17;29.30;;;23.30;;
14858;SDS011;7521;51.700;6.874;2023-02-17T14:43:22;24.07;;;20.93;;
14858;SDS011;7521;51.700;6.874;2023-02-17T14:46:28;20.03;;;17.23;;
14858;SDS011;7521;51.700;6.874;2023-02-17T14:49:33;21.07;;;18.60;;
14858;SDS011;7521;51.700;6.874;2023-02-17T14:52:43;20.70;;;18.50;;
14858;SDS011;7521;51.700;6.874;2023-02-17T14:55:49;21.00;;;18.80;;
14858;SDS011;7521;51.700;6.874;2023-02-17T14:58:55;20.57;;;18.57;;
14858;SDS011;7521;51.700;6.874;2023-02-17T15:02:00;19.60;;;17.47;;
14858;SDS011;7521;51.700;6.874;2023-02-17T15:05:06;20.58;;;18.38;;
14858;SDS011;7521;51.700;6.874;2023-02-17T15:08:12;21.03;;;18.43;;
14858;SDS011;7521;51.700;6.874;2023-02-17T15:11:19;20.07;;;18.07;;
14858;SDS011;7521;51.700;6.874;2023-02-17T15:14:24;21.30;;;19.00;;
14858;SDS011;7521;51.700;6.874;2023-02-17T15:17:29;23.20;;;18.67;;
14858;SDS011;7521;51.700;6.874;2023-02-17T15:20:35;20.83;;;18.33;;
14858;SDS011;7521;51.700;6.874;2023-02-17T15:23:40;24.80;;;18.13;;
14858;SDS011;7521;51.700;6.874;2023-02-17T15:26:45;22.23;;;18.08;;
14858;SDS011;7521;51.700;6.874;2023-02-17T15:29:51;20.07;;;16.87;;
14858;SDS011;7521;51.700;6.874;2023-02-17T15:32:57;19.20;;;15.63;;
14858;SDS011;7521;51.700;6.874;2023-02-17T15:36:02;17.05;;;14.65;;
14858;SDS011;7521;51.700;6.874;2023-02-17T15:39:08;15.47;;;13.07;;
14858;SDS011;7521;51.700;6.874;2023-02-17T15:42:14;15.20;;;13.70;;
14858;SDS011;7521;51.700;6.874;2023-02-17T15:45:19;14.80;;;13.17;;
14858;SDS011;7521;51.700;6.874;2023-02-17T15:48:26;14.30;;;12.30;;
14858;SDS011;7521;51.700;6.874;2023-02-17T15:51:33;15.03;;;12.53;;
14858;SDS011;7521;51.700;6.874;2023-02-17T15:54:39;14.60;;;13.00;;
14858;SDS011;7521;51.700;6.874;2023-02-17T15:57:46;14.10;;;12.07;;
14858;SDS011;7521;51.700;6.874;2023-02-17T16:00:51;15.60;;;11.90;;
14858;SDS011;7521;51.700;6.874;2023-02-17T16:03:57;13.60;;;11.90;;
14858;SDS011;7521;51.700;6.874;2023-02-17T16:07:02;16.23;;;12.10;;
14858;SDS011;7521;51.700;6.874;2023-02-17T16:10:08;14.75;;;12.25;;
14858;SDS011;7521;51.700;6.874;2023-02-17T16:13:14;13.23;;;11.17;;
14858;SDS011;7521;51.700;6.874;2023-02-17T16:16:21;14.87;;;10.77;;
14858;SDS011;7521;51.700;6.874;2023-02-17T16:19:26;12.77;;;11.23;;
14858;SDS011;7521;51.700;6.874;2023-02-17T16:22:32;16.17;;;11.00;;
14858;SDS011;7521;51.700;6.874;2023-02-17T16:25:37;12.27;;;10.23;;
14858;SDS011;7521;51.700;6.874;2023-02-17T16:28:42;11.23;;;10.03;;
14858;SDS011;7521;51.700;6.874;2023-02-17T16:31:49;11.40;;;9.30;;
14858;SDS011;7521;51.700;6.874;2023-02-17T16:34:54;10.63;;;9.50;;
14858;SDS011;7521;51.700;6.874;2023-02-17T16:38:06;9.77;;;8.77;;
14858;SDS011;7521;51.700;6.874;2023-02-17T16:41:12;9.43;;;8.30;;
14858;SDS011;7521;51.700;6.874;2023-02-17T16:44:19;9.90;;;8.73;;
14858;SDS011;7521;51.700;6.874;2023-02-17T16:47:24;11.53;;;9.37;;
14858;SDS011;7521;51.700;6.874;2023-02-17T16:50:31;10.23;;;9.20;;
14858;SDS011;7521;51.700;6.874;2023-02-17T16:53:36;13.13;;;8.23;;
14858;SDS011;7521;51.700;6.874;2023-02-17T16:56:42;10.10;;;7.68;;
14858;SDS011;7521;51.700;6.874;2023-02-17T16:59:48;10.07;;;7.97;;
14858;SDS011;7521;51.700;6.874;2023-02-17T17:02:53;9.30;;;7.57;;
14858;SDS011;7521;51.700;6.874;2023-02-17T17:05:58;8.73;;;7.90;;
14858;SDS011;7521;51.700;6.874;2023-02-17T17:09:05;9.73;;;8.03;;
14858;SDS011;7521;51.700;6.874;2023-02-17T17:12:10;10.17;;;7.40;;
14858;SDS011;7521;51.700;6.874;2023-02-17T17:15:15;8.00;;;7.00;;
14858;SDS011;7521;51.700;6.874;2023-02-17T17:18:21;7.77;;;6.53;;
14858;SDS011;7521;51.700;6.874;2023-02-17T17:21:28;8.67;;;6.20;;
14858;SDS011;7521;51.700;6.874;2023-02-17T17:24:33;7.20;;;6.40;;
14858;SDS011;7521;51.700;6.874;2023-02-17T17:27:38;8.27;;;6.50;;
14858;SDS011;7521;51.700;6.874;2023-02-17T17:30:45;6.97;;;6.10;;
14858;SDS011;7521;51.700;6.874;2023-02-17T17:33:51;8.50;;;5.80;;
14858;SDS011;7521;51.700;6.874;2023-02-17T17:36:56;9.40;;;6.97;;
14858;SDS011;7521;51.700;6.874;2023-02-17T17:40:02;10.80;;;7.30;;
14858;SDS011;7521;51.700;6.874;2023-02-17T17:43:07;13.40;;;8.57;;
14858;SDS011;7521;51.700;6.874;2023-02-17T17:46:14;13.93;;;8.85;;
14858;SDS011;7521;51.700;6.874;2023-02-17T17:49:20;7.90;;;5.33;;
14858;SDS011;7521;51.700;6.874;2023-02-17T17:52:25;10.80;;;6.30;;
14858;SDS011;7521;51.700;6.874;2023-02-17T17:55:30;6.40;;;5.80;;
14858;SDS011;7521;51.700;6.874;2023-02-17T17:58:35;14.40;;;9.80;;
14858;SDS011;7521;51.700;6.874;2023-02-17T18:01:42;10.60;;;7.63;;
14858;SDS011;7521;51.700;6.874;2023-02-17T18:04:48;20.00;;;11.77;;
14858;SDS011;7521;51.700;6.874;2023-02-17T18:07:53;9.60;;;6.47;;
14858;SDS011;7521;51.700;6.874;2023-02-17T18:10:58;12.40;;;8.00;;
14858;SDS011;7521;51.700;6.874;2023-02-17T18:14:04;8.43;;;6.10;;
14858;SDS011;7521;51.700;6.874;2023-02-17T18:17:10;10.97;;;6.70;;
14858;SDS011;7521;51.700;6.874;2023-02-17T18:20:16;8.10;;;5.77;;
14858;SDS011;7521;51.700;6.874;2023-02-17T18:23:21;7.53;;;6.10;;
14858;SDS011;7521;51.700;6.874;2023-02-17T18:26:26;7.10;;;6.20;;
14858;SDS011;7521;51.700;6.874;2023-02-17T18:29:33;8.17;;;7.37;;
14858;SDS011;7521;51.700;6.874;2023-02-17T18:32:38;8.73;;;6.32;;
14858;SDS011;7521;51.700;6.874;2023-02-17T18:35:43;10.37;;;7.60;;
14858;SDS011;7521;51.700;6.874;2023-02-17T18:38:49;11.03;;;8.00;;
14858;SDS011;7521;51.700;6.874;2023-02-17T18:41:54;8.63;;;6.53;;
14858;SDS011;7521;51.700;6.874;2023-02-17T18:44:59;9.60;;;7.20;;
14858;SDS011;7521;51.700;6.874;2023-02-17T18:48:05;7.73;;;6.73;;
14858;SDS011;7521;51.700;6.874;2023-02-17T18:51:11;8.48;;;6.68;;
14858;SDS011;7521;51.700;6.874;2023-02-17T18:54:16;7.60;;;6.90;;
14858;SDS011;7521;51.700;6.874;2023-02-17T18:57:22;9.70;;;7.50;;
14858;SDS011;7521;51.700;6.874;2023-02-17T19:00:27;10.25;;;7.68;;
14858;SDS011;7521;51.700;6.874;2023-02-17T19:03:32;8.83;;;7.10;;
14858;SDS011;7521;51.700;6.874;2023-02-17T19:06:37;13.27;;;7.75;;
14858;SDS011;7521;51.700;6.874;2023-02-17T19:09:42;10.03;;;8.87;;
14858;SDS011;7521;51.700;6.874;2023-02-17T19:12:48;8.10;;;7.33;;
14858;SDS011;7521;51.700;6.874;2023-02-17T19:15:53;10.30;;;7.95;;
14858;SDS011;7521;51.700;6.874;2023-02-17T19:18:58;9.70;;;8.38;;
14858;SDS011;7521;51.700;6.874;2023-02-17T19:22:04;8.13;;;7.37;;
14858;SDS011;7521;51.700;6.874;2023-02-17T19:25:12;10.67;;;8.50;;
14858;SDS011;7521;51.700;6.874;2023-02-17T19:28:17;8.83;;;7.93;;
14858;SDS011;7521;51.700;6.874;2023-02-17T19:31:22;11.23;;;7.95;;
14858;SDS011;7521;51.700;6.874;2023-02-17T19:34:27;10.75;;;9.00;;
14858;SDS011;7521;51.700;6.874;2023-02-17T19:37:33;11.53;;;9.67;;
14858;SDS011;7521;51.700;6.874;2023-02-17T19:40:39;13.33;;;10.20;;
14858;SDS011;7521;51.700;6.874;2023-02-17T19:43:44;13.77;;;9.50;;
14858;SDS011;7521;51.700;6.874;2023-02-17T19:46:49;11.87;;;8.87;;
14858;SDS011;7521;51.700;6.874;2023-02-17T19:49:55;21.40;;;13.90;;
14858;SDS011;7521;51.700;6.874;2023-02-17T19:53:00;17.60;;;11.17;;